Airfield :
LOGIN :

Register | Disclaimer

   EN    FR    IT 

 










Legend :    VFR   Marginal VFR   IFR   Intensive IFR   Very Intensive IFR
Visi :
Ceiling :
>= 8 km
>= 3000ft
5 to 8 km
1000 to 3000 ft
1500m to 5 km
500 to 1000 ft
800 to 1500m
200 to 500 ft
< 800m
< 200 ft
Symbols :   Thunderstorms  Fog  Heavy snow  Heavy precipitations  Wind > 20 kt
SIGMETs :     Misc.  Thunderstorms  Icing  Turbulence  Mountain Waves  Volcanic Ashes






- Airport Elevation : 598 ft
- IATA code : BQH


EGKB - Biggin Hill

CURRENT METAR :
  • 241420Z 23006KT 200V290 9999 SHRA SCT040 11/07 Q0996

EXPIRED METARs :
  • 241350Z 22010KT 190V250 9999 VCSH SCT035 11/06 Q0996
  • 241320Z 22015KT 9999 VCSH SCT040TCU 13/05 Q0996
  • 241250Z 22013KT 180V250 9999 -SHRA SCT040TCU 12/06 Q0996
  • 241220Z 22014KT 190V250 9999 VCSH SCT035TCU 13/04 Q0996
  • 241150Z 23010KT 200V260 9999 SCT035 12/06 Q0997

TAF TAF EGKB
Valid from the 24 at 15:00 until the 24 at 22:00 UTC


241402Z 2415/2422 21010KT 9999 SCT035
TEMPO 2415/2422 7000 SHRA
PROB30
TEMPO 2415/2422 3000 +SHRA
PROB30
TEMPO 2415/2416 21015G25KT
BECMG 2419/2422 12004KT



MET'MAP, your aeronautical weather chart ! - Copyright ORBIFLY December 2007 - Disclaimer

ORBIFLY MET'MAP TEAM :

Programming & Development : Alexandra Zaïnal
Concept & original design : Baudouin d'Aumeries
Assistance for programming : Marc-Olivier Méhu
Technical & hardware support : Manuel Goepfert

Contact : metmap@orbifly.com




SOURCES & CREDITS :

   NOAA